Time;durP1;ratioP1;P1;durP2;ratioP2;P2;SDS_P1;SDS_P2;PMS_P1;PMS_P2;Temp;Humidity;BMP_temperature;BMP_pressure;BME280_temperature;BME280_humidity;BME280_pressure;Samples;Min_cycle;Max_cycle;Signal;HPM_P1;HPM_P2
2022/12/08 00:00:52;;;;;;;19.03;12.90;;;4.30;99.90;;;;;;5038630;28;20172;-73
2022/12/08 00:03:18;;;;;;;25.00;14.50;;;4.30;99.90;;;;;;5037647;28;20176;-72
2022/12/08 00:11:15;;;;;;;19.93;13.50;;;4.40;99.90;;;;;;5032710;28;20476;-72
2022/12/08 00:13:41;;;;;;;20.67;13.20;;;4.40;99.90;;;;;;5034904;28;20474;-72
2022/12/08 00:16:07;;;;;;;23.00;13.47;;;4.40;99.90;;;;;;5036724;28;20532;-72
2022/12/08 00:18:32;;;;;;;22.80;13.93;;;4.50;99.90;;;;;;5035643;28;20203;-72
2022/12/08 00:20:58;;;;;;;25.80;13.73;;;4.50;99.90;;;;;;5037784;28;20188;-72
2022/12/08 00:23:24;;;;;;;25.37;12.83;;;4.60;99.90;;;;;;5031920;28;20565;-71
2022/12/08 00:25:50;;;;;;;21.17;13.60;;;4.50;99.90;;;;;;5039172;28;20426;-71
2022/12/08 00:28:16;;;;;;;20.80;12.37;;;4.50;99.90;;;;;;5038169;28;20198;-72
2022/12/08 00:30:42;;;;;;;21.80;13.57;;;4.50;99.90;;;;;;5037867;28;20188;-72
2022/12/08 00:33:08;;;;;;;22.73;11.87;;;4.50;99.90;;;;;;5035934;28;20203;-72
2022/12/08 00:35:34;;;;;;;21.27;10.90;;;4.40;99.90;;;;;;5033208;28;20486;-73
2022/12/08 00:38:00;;;;;;;24.53;12.87;;;4.40;99.90;;;;;;5034795;28;20845;-72
2022/12/08 00:40:25;;;;;;;20.23;12.57;;;4.50;99.90;;;;;;5034998;28;20264;-72
2022/12/08 00:42:51;;;;;;;22.73;12.53;;;4.40;99.90;;;;;;5037620;28;20184;-72
2022/12/08 00:45:16;;;;;;;20.47;12.93;;;4.40;99.90;;;;;;5036736;28;20196;-72
2022/12/08 00:47:42;;;;;;;21.70;13.70;;;4.50;99.90;;;;;;5035628;28;20200;-73
2022/12/08 00:50:08;;;;;;;22.27;13.13;;;4.30;99.90;;;;;;5037570;28;21079;-72
2022/12/08 00:52:33;;;;;;;22.33;13.07;;;4.30;99.90;;;;;;5037419;28;20286;-73
2022/12/08 00:54:59;;;;;;;20.33;12.67;;;4.30;99.90;;;;;;5032947;28;20506;-73
2022/12/08 00:57:25;;;;;;;19.60;13.33;;;4.40;99.90;;;;;;5037192;28;20179;-74
2022/12/08 00:59:50;;;;;;;22.53;12.93;;;4.40;99.90;;;;;;5036787;28;20306;-73
2022/12/08 01:02:16;;;;;;;22.03;11.90;;;4.40;99.90;;;;;;5036118;28;20188;-73
2022/12/08 01:04:41;;;;;;;20.37;12.23;;;4.30;99.90;;;;;;5036451;28;20271;-74
2022/12/08 01:07:07;;;;;;;17.63;11.87;;;4.30;99.90;;;;;;5032812;28;20195;-73
2022/12/08 01:09:33;;;;;;;18.80;12.37;;;4.30;99.90;;;;;;5018251;28;21505;-72
2022/12/08 01:11:59;;;;;;;23.57;13.53;;;4.20;99.90;;;;;;5034554;28;20693;-74
2022/12/08 01:14:25;;;;;;;19.43;12.67;;;4.30;99.90;;;;;;5036872;28;20474;-73
2022/12/08 01:16:50;;;;;;;18.83;12.53;;;4.20;99.90;;;;;;5036136;28;20176;-73
2022/12/08 01:19:17;;;;;;;22.73;12.00;;;4.20;99.90;;;;;;5037643;28;20426;-72
2022/12/08 01:21:43;;;;;;;23.70;13.03;;;4.30;99.90;;;;;;5036785;28;20209;-73
2022/12/08 01:24:17;;;;;;;24.10;12.40;;;4.20;99.90;;;;;;5040702;28;20446;-72
2022/12/08 01:26:43;;;;;;;17.57;12.53;;;4.20;99.90;;;;;;5034933;28;20857;-72
2022/12/08 01:29:10;;;;;;;18.87;10.90;;;4.30;99.90;;;;;;5033463;28;20443;-71
2022/12/08 01:31:36;;;;;;;18.57;11.60;;;4.20;99.90;;;;;;5036381;28;20794;-71
2022/12/08 01:34:02;;;;;;;22.00;12.93;;;4.20;99.90;;;;;;5031428;28;20461;-71
2022/12/08 01:36:30;;;;;;;19.20;11.10;;;4.20;99.90;;;;;;5012030;28;20442;-71
2022/12/08 01:38:57;;;;;;;20.17;12.30;;;4.20;99.90;;;;;;5025822;28;21936;-71
2022/12/08 01:41:25;;;;;;;16.83;11.17;;;4.30;99.90;;;;;;5036008;28;20434;-71
2022/12/08 01:44:01;;;;;;;21.80;11.87;;;4.20;99.90;;;;;;5033658;28;20465;-72
2022/12/08 01:46:31;;;;;;;18.20;11.30;;;4.20;99.90;;;;;;5032205;28;20426;-71
2022/12/08 01:49:05;;;;;;;22.57;12.13;;;4.20;99.90;;;;;;5032078;28;20781;-71
2022/12/08 01:51:41;;;;;;;16.30;10.63;;;4.20;99.90;;;;;;5032553;28;20453;-72
2022/12/08 01:54:07;;;;;;;18.63;11.90;;;4.20;99.90;;;;;;5019243;28;20465;-72
2022/12/08 01:56:58;;;;;;;17.07;10.30;;;4.20;99.90;;;;;;5034129;28;20446;-72
2022/12/08 01:59:25;;;;;;;19.77;11.10;;;4.10;99.90;;;;;;5027664;28;20430;-72
2022/12/08 02:01:51;;;;;;;25.30;12.77;;;4.20;99.90;;;;;;5035804;28;20419;-71
2022/12/08 02:04:17;;;;;;;18.33;11.63;;;4.10;99.90;;;;;;5034053;28;20481;-72
2022/12/08 02:06:45;;;;;;;19.77;11.63;;;4.10;99.90;;;;;;5033433;28;20184;-71
2022/12/08 02:09:12;;;;;;;16.53;11.10;;;4.00;99.90;;;;;;5039727;28;20218;-71
2022/12/08 02:11:37;;;;;;;18.30;11.90;;;4.00;99.90;;;;;;5030520;28;20933;-71
2022/12/08 02:14:06;;;;;;;20.13;12.23;;;4.10;99.90;;;;;;5035803;28;20481;-72
2022/12/08 02:16:43;;;;;;;18.60;11.50;;;4.10;99.90;;;;;;5037681;28;20183;-71
2022/12/08 02:19:44;;;;;;;20.63;11.70;;;4.10;99.90;;;;;;5034775;28;20446;-71
2022/12/08 02:22:43;;;;;;;18.03;11.40;;;4.20;99.90;;;;;;5032232;28;20425;-71
2022/12/08 02:25:25;;;;;;;20.60;10.77;;;4.10;99.90;;;;;;5032628;28;20463;-72
2022/12/08 02:28:28;;;;;;;21.20;11.17;;;4.20;99.90;;;;;;5036569;28;20476;-71
2022/12/08 02:31:51;;;;;;;18.20;11.27;;;4.20;99.90;;;;;;5034582;28;20551;-71
2022/12/08 02:34:34;;;;;;;19.57;10.70;;;4.20;99.90;;;;;;4996421;28;20468;-71
2022/12/08 02:37:15;;;;;;;18.80;10.17;;;4.00;99.90;;;;;;4992285;28;20440;-71
2022/12/08 02:39:58;;;;;;;20.20;11.80;;;4.00;99.90;;;;;;5018282;28;20478;-72
2022/12/08 02:42:32;;;;;;;21.17;11.63;;;4.10;99.90;;;;;;5030286;28;20418;-71
2022/12/08 02:45:07;;;;;;;21.70;11.47;;;4.10;99.90;;;;;;5035019;28;20476;-71
2022/12/08 02:47:33;;;;;;;17.33;10.70;;;4.20;99.90;;;;;;5036040;28;20421;-71
2022/12/08 02:49:59;;;;;;;16.33;10.80;;;4.30;99.90;;;;;;5034321;28;20845;-71
2022/12/08 02:52:25;;;;;;;17.90;10.70;;;4.20;99.90;;;;;;5031516;28;20434;-71
2022/12/08 02:55:02;;;;;;;18.27;11.20;;;4.20;99.90;;;;;;5030353;28;20204;-71
2022/12/08 02:57:51;;;;;;;20.50;11.80;;;4.30;99.90;;;;;;5031628;28;20530;-71
2022/12/08 03:00:20;;;;;;;21.23;10.87;;;4.20;99.90;;;;;;5036373;28;20808;-71
2022/12/08 03:03:01;;;;;;;18.80;10.97;;;4.20;99.90;;;;;;5032057;28;20438;-71
2022/12/08 03:06:07;;;;;;;15.90;10.90;;;4.20;99.90;;;;;;5033738;28;20465;-72
2022/12/08 03:08:54;;;;;;;22.27;10.87;;;4.20;99.90;;;;;;5030588;28;20438;-73
2022/12/08 03:11:33;;;;;;;14.93;9.60;;;4.20;99.90;;;;;;5033939;28;20437;-72
2022/12/08 03:14:02;;;;;;;19.57;11.20;;;4.10;99.90;;;;;;5032994;28;21332;-72
2022/12/08 03:16:31;;;;;;;19.90;10.87;;;4.10;99.90;;;;;;5021701;28;20434;-72
2022/12/08 03:19:09;;;;;;;16.90;10.47;;;4.10;99.90;;;;;;5035026;28;20884;-74
2022/12/08 03:21:38;;;;;;;15.30;9.10;;;4.10;99.90;;;;;;5031717;28;20525;-73
2022/12/08 03:24:06;;;;;;;13.53;9.60;;;4.10;99.90;;;;;;5037367;28;20442;-73
2022/12/08 03:26:42;;;;;;;17.77;10.67;;;3.90;99.90;;;;;;5042582;28;20410;-72
2022/12/08 03:29:08;;;;;;;19.77;10.30;;;3.90;99.90;;;;;;5033930;28;20438;-72
2022/12/08 03:31:39;;;;;;;21.53;11.43;;;4.00;99.90;;;;;;5039157;28;20441;-72
2022/12/08 03:34:06;;;;;;;17.93;10.30;;;4.00;99.90;;;;;;5038314;28;20290;-72
2022/12/08 03:36:32;;;;;;;15.77;10.50;;;4.10;99.90;;;;;;5038098;28;20440;-72
2022/12/08 03:38:58;;;;;;;15.27;10.20;;;4.20;99.90;;;;;;5036523;28;20431;-72
2022/12/08 03:41:24;;;;;;;19.63;11.20;;;4.20;99.90;;;;;;5039858;28;20176;-72
2022/12/08 03:43:55;;;;;;;19.50;11.00;;;4.20;99.90;;;;;;5035476;28;21092;-73
2022/12/08 03:46:23;;;;;;;24.50;13.13;;;4.20;99.90;;;;;;5037148;28;20172;-72
2022/12/08 03:48:49;;;;;;;18.03;11.03;;;4.20;99.90;;;;;;5040924;28;20434;-73
2022/12/08 03:51:15;;;;;;;21.73;12.10;;;4.20;99.90;;;;;;5040289;28;20440;-74
2022/12/08 03:53:41;;;;;;;19.17;11.93;;;4.20;99.90;;;;;;5036123;28;20213;-73
2022/12/08 03:56:21;;;;;;;22.70;12.07;;;4.20;99.90;;;;;;5018633;28;20542;-73
2022/12/08 03:58:46;;;;;;;21.67;12.40;;;4.20;99.90;;;;;;5038800;28;20620;-73
2022/12/08 04:01:12;;;;;;;23.20;12.43;;;4.20;99.90;;;;;;5035739;28;20457;-72
2022/12/08 04:03:37;;;;;;;24.97;13.33;;;4.10;99.90;;;;;;5036330;28;20203;-72
2022/12/08 04:06:03;;;;;;;21.40;12.13;;;4.20;99.90;;;;;;5033423;28;20279;-71
2022/12/08 04:08:29;;;;;;;18.13;11.10;;;4.20;99.90;;;;;;5039936;28;20246;-72
2022/12/08 04:10:54;;;;;;;20.93;12.73;;;4.20;99.90;;;;;;5035156;28;20582;-72
2022/12/08 04:13:20;;;;;;;21.20;13.07;;;4.30;99.90;;;;;;5037824;28;20179;-72
2022/12/08 04:15:47;;;;;;;18.47;11.60;;;4.20;99.90;;;;;;5037052;28;20250;-72
2022/12/08 04:18:13;;;;;;;20.60;12.80;;;4.20;99.90;;;;;;5037372;28;20841;-72
2022/12/08 04:20:40;;;;;;;22.97;13.07;;;4.20;99.90;;;;;;5035162;28;20488;-72
2022/12/08 04:23:06;;;;;;;19.80;12.13;;;4.30;99.90;;;;;;5019536;28;20501;-71
2022/12/08 04:25:32;;;;;;;22.47;12.00;;;4.30;99.90;;;;;;5037767;28;20474;-72
2022/12/08 04:27:58;;;;;;;21.53;13.10;;;4.30;99.90;;;;;;5034608;28;20434;-72
2022/12/08 04:30:23;;;;;;;26.20;14.93;;;4.30;99.90;;;;;;5040410;28;20441;-72
2022/12/08 04:32:49;;;;;;;23.70;13.77;;;4.30;99.90;;;;;;5040339;28;20195;-71
2022/12/08 04:35:14;;;;;;;22.73;13.70;;;4.30;99.90;;;;;;5038114;28;20258;-72
2022/12/08 04:37:40;;;;;;;22.73;14.23;;;4.30;99.90;;;;;;5037249;28;20186;-72
2022/12/08 04:40:06;;;;;;;25.30;13.00;;;4.30;99.90;;;;;;5033157;28;20556;-73
2022/12/08 04:42:32;;;;;;;18.77;12.10;;;4.30;99.90;;;;;;5038753;28;20187;-73
2022/12/08 04:44:57;;;;;;;21.10;12.27;;;4.20;99.90;;;;;;5035894;28;20447;-72
2022/12/08 04:47:23;;;;;;;21.60;12.20;;;4.20;99.90;;;;;;5038065;28;20188;-72
2022/12/08 04:49:48;;;;;;;22.93;13.07;;;4.10;99.90;;;;;;5033856;28;20184;-72
2022/12/08 04:52:14;;;;;;;22.93;13.23;;;4.20;99.90;;;;;;5038175;28;20212;-73
2022/12/08 04:54:39;;;;;;;19.17;12.03;;;4.20;99.90;;;;;;5016488;28;20204;-72
2022/12/08 04:57:05;;;;;;;18.80;12.57;;;4.20;99.90;;;;;;5035616;28;20231;-73
2022/12/08 04:59:30;;;;;;;20.77;12.47;;;4.10;99.90;;;;;;5038587;28;20184;-73
2022/12/08 05:01:56;;;;;;;22.83;14.27;;;4.20;99.90;;;;;;5034492;28;20252;-72
2022/12/08 05:04:21;;;;;;;23.63;13.00;;;4.20;99.90;;;;;;5035148;28;20307;-72
2022/12/08 05:06:47;;;;;;;19.90;12.53;;;4.10;99.90;;;;;;5033706;28;20270;-71
2022/12/08 05:09:12;;;;;;;22.53;12.53;;;4.20;99.90;;;;;;5037364;28;20184;-71
2022/12/08 05:11:40;;;;;;;21.80;13.03;;;4.20;99.90;;;;;;5036361;28;20186;-72
2022/12/08 05:14:09;;;;;;;23.53;13.20;;;4.20;99.90;;;;;;5039238;28;20222;-72
2022/12/08 05:16:36;;;;;;;20.93;12.43;;;4.10;99.90;;;;;;5036532;28;20444;-72
2022/12/08 05:19:01;;;;;;;22.57;13.23;;;4.10;99.90;;;;;;5035735;28;20882;-72
2022/12/08 05:21:27;;;;;;;26.03;14.10;;;4.20;99.90;;;;;;5037761;28;20529;-72
2022/12/08 05:23:52;;;;;;;23.60;12.60;;;4.10;99.90;;;;;;5033500;28;20669;-72
2022/12/08 05:26:18;;;;;;;25.37;13.50;;;4.00;99.90;;;;;;5040814;28;20187;-72
2022/12/08 05:28:43;;;;;;;28.07;15.27;;;4.00;99.90;;;;;;5035411;28;20195;-72
2022/12/08 05:31:11;;;;;;;27.57;14.00;;;3.80;99.90;;;;;;5037580;28;20214;-71
2022/12/08 05:33:37;;;;;;;28.93;15.10;;;3.90;99.90;;;;;;5037436;28;20286;-72
2022/12/08 05:36:02;;;;;;;25.40;14.33;;;3.90;99.90;;;;;;5035236;28;20549;-71
2022/12/08 05:38:28;;;;;;;27.23;14.87;;;3.80;99.90;;;;;;5033250;28;20173;-73
2022/12/08 05:40:53;;;;;;;23.97;13.00;;;3.80;99.90;;;;;;5034985;28;20188;-73
2022/12/08 05:43:19;;;;;;;22.47;14.03;;;3.80;99.90;;;;;;5038121;28;20191;-73
2022/12/08 05:45:45;;;;;;;28.93;14.17;;;3.80;99.90;;;;;;5032299;28;20863;-72
2022/12/08 05:48:10;;;;;;;22.10;13.20;;;3.90;99.90;;;;;;5036561;28;20187;-72
2022/12/08 05:50:36;;;;;;;25.10;14.10;;;3.90;99.90;;;;;;5030976;28;20187;-71
2022/12/08 05:53:02;;;;;;;21.20;12.80;;;4.00;99.90;;;;;;5035836;28;20271;-72
2022/12/08 05:55:27;;;;;;;22.00;14.53;;;4.00;99.90;;;;;;5038396;28;20751;-72
2022/12/08 05:57:53;;;;;;;22.03;13.80;;;3.90;99.90;;;;;;5031391;28;20688;-72
2022/12/08 06:00:19;;;;;;;26.43;13.80;;;3.90;99.90;;;;;;5022410;28;20180;-72
2022/12/08 06:02:45;;;;;;;24.13;13.17;;;3.90;99.90;;;;;;5035061;28;20184;-73
2022/12/08 06:05:10;;;;;;;23.20;13.33;;;3.90;99.90;;;;;;5036669;28;20896;-72
2022/12/08 06:07:36;;;;;;;20.47;13.17;;;4.10;99.90;;;;;;5034536;28;20337;-72
2022/12/08 06:10:02;;;;;;;27.13;14.80;;;4.00;99.90;;;;;;5017744;28;20653;-72
2022/12/08 06:12:28;;;;;;;25.50;14.13;;;4.00;99.90;;;;;;5018722;28;20188;-72
2022/12/08 06:14:53;;;;;;;23.80;14.30;;;4.00;99.90;;;;;;5035048;28;20470;-72
2022/12/08 06:17:19;;;;;;;29.27;16.40;;;3.90;99.90;;;;;;5037675;28;20211;-72
2022/12/08 06:19:45;;;;;;;29.13;16.20;;;3.80;99.90;;;;;;5037062;28;20184;-72
2022/12/08 06:22:10;;;;;;;30.60;17.00;;;3.90;99.90;;;;;;5035021;28;20665;-73
2022/12/08 06:24:36;;;;;;;29.83;14.67;;;3.90;99.90;;;;;;5033551;28;20696;-72
2022/12/08 06:27:01;;;;;;;26.90;14.60;;;3.90;99.90;;;;;;5036508;28;20208;-73
2022/12/08 06:29:27;;;;;;;25.07;15.13;;;3.90;99.90;;;;;;5037314;28;20194;-73
2022/12/08 06:31:52;;;;;;;25.80;15.50;;;3.90;99.90;;;;;;5033322;28;20321;-73
2022/12/08 06:34:18;;;;;;;25.67;15.53;;;3.90;99.90;;;;;;5031771;28;20292;-72
2022/12/08 06:36:43;;;;;;;31.33;17.00;;;4.00;99.90;;;;;;5031524;28;20188;-73
2022/12/08 06:39:09;;;;;;;28.60;15.33;;;4.00;99.90;;;;;;5032928;28;20721;-73
2022/12/08 06:42:42;;;;;;;25.60;16.20;;;3.90;99.90;;;;;;5019898;28;20175;-73
2022/12/08 06:44:21;;;;;;;26.00;15.10;;;4.00;99.90;;;;;;5032354;28;20546;-74
2022/12/08 06:46:46;;;;;;;27.67;14.90;;;4.00;99.90;;;;;;5013900;28;20464;-73
2022/12/08 06:49:12;;;;;;;25.07;15.67;;;4.00;99.90;;;;;;5031307;28;20240;-72
2022/12/08 06:51:37;;;;;;;23.73;14.53;;;4.10;99.90;;;;;;5032571;28;20279;-72
2022/12/08 06:54:03;;;;;;;20.77;13.70;;;4.10;99.90;;;;;;5034963;28;20222;-69
2022/12/08 06:56:29;;;;;;;23.57;14.63;;;4.10;99.90;;;;;;5035692;28;20181;-72
2022/12/08 06:58:54;;;;;;;23.93;13.63;;;4.10;99.90;;;;;;5033281;28;20319;-72
2022/12/08 07:01:20;;;;;;;24.27;13.93;;;4.10;99.90;;;;;;5027615;28;20553;-72
2022/12/08 07:03:46;;;;;;;27.80;15.10;;;4.20;99.90;;;;;;5019935;28;20255;-74
2022/12/08 07:06:21;;;;;;;26.07;15.50;;;4.10;99.90;;;;;;5029957;28;20188;-74
2022/12/08 07:08:46;;;;;;;24.40;14.60;;;4.10;99.90;;;;;;5021817;28;20435;-73
2022/12/08 07:11:12;;;;;;;29.00;16.93;;;4.10;99.90;;;;;;5026843;28;20800;-73
2022/12/08 07:13:37;;;;;;;30.20;16.47;;;4.00;99.90;;;;;;5031848;28;20245;-73
2022/12/08 07:16:05;;;;;;;25.67;15.70;;;4.10;99.90;;;;;;5035588;28;20303;-73
2022/12/08 07:18:30;;;;;;;33.57;15.47;;;4.00;99.90;;;;;;5032138;28;20194;-73
2022/12/08 07:21:01;;;;;;;25.57;15.30;;;4.10;99.90;;;;;;5030383;28;20434;-73
2022/12/08 07:23:26;;;;;;;24.53;15.23;;;4.00;99.90;;;;;;5015778;28;20184;-73
2022/12/08 07:25:52;;;;;;;27.67;16.00;;;4.00;99.90;;;;;;5021040;28;20497;-73
2022/12/08 07:28:17;;;;;;;25.97;15.53;;;3.90;99.90;;;;;;5032929;28;20273;-73
2022/12/08 07:30:43;;;;;;;26.77;15.77;;;3.90;99.90;;;;;;5034952;28;20198;-72
2022/12/08 07:33:08;;;;;;;28.70;16.60;;;3.90;99.90;;;;;;5036273;28;20191;-72
2022/12/08 07:35:34;;;;;;;23.33;14.93;;;4.00;99.90;;;;;;5032536;28;20219;-73
2022/12/08 07:37:59;;;;;;;23.80;14.70;;;3.80;99.90;;;;;;5032466;28;20929;-73
2022/12/08 07:40:25;;;;;;;27.80;15.70;;;3.90;99.90;;;;;;5020663;28;20653;-73
2022/12/08 07:42:51;;;;;;;31.33;16.93;;;3.80;99.90;;;;;;5029704;28;20179;-73
2022/12/08 07:45:16;;;;;;;28.50;18.17;;;3.80;99.90;;;;;;5028542;28;20627;-72
2022/12/08 07:47:42;;;;;;;27.97;16.27;;;3.80;99.90;;;;;;5029734;28;20216;-73
2022/12/08 07:50:07;;;;;;;29.40;16.60;;;3.90;99.90;;;;;;5035690;28;20277;-72
2022/12/08 07:52:34;;;;;;;26.63;16.63;;;3.80;99.90;;;;;;5029738;28;20258;-74
2022/12/08 07:54:59;;;;;;;26.97;17.00;;;3.80;99.90;;;;;;5014987;28;20215;-72
2022/12/08 07:57:25;;;;;;;27.23;16.30;;;3.80;99.90;;;;;;5028106;28;20442;-72
2022/12/08 07:59:50;;;;;;;28.60;17.10;;;3.70;99.90;;;;;;5029426;28;20202;-72
2022/12/08 08:02:18;;;;;;;26.23;16.40;;;3.80;99.90;;;;;;5030390;28;20245;-73
2022/12/08 08:04:44;;;;;;;30.70;17.10;;;3.80;99.90;;;;;;5031216;28;20211;-67
2022/12/08 08:07:09;;;;;;;26.93;16.00;;;3.80;99.90;;;;;;5032691;28;21168;-63
2022/12/08 08:09:35;;;;;;;29.57;17.17;;;3.80;99.90;;;;;;5034417;28;20191;-70
2022/12/08 08:12:01;;;;;;;29.60;16.37;;;3.90;99.90;;;;;;5039441;28;20932;-67
2022/12/08 08:14:26;;;;;;;27.80;16.90;;;3.90;99.90;;;;;;5018404;28;20300;-69
2022/12/08 08:16:52;;;;;;;25.03;15.97;;;3.80;99.90;;;;;;5033999;28;20183;-68
2022/12/08 08:19:18;;;;;;;30.23;16.70;;;3.80;99.90;;;;;;5035848;28;20271;-69
2022/12/08 08:21:43;;;;;;;25.67;17.70;;;3.90;99.90;;;;;;5014387;28;20548;-67
2022/12/08 08:24:09;;;;;;;27.57;16.37;;;4.00;99.90;;;;;;5015119;28;20219;-70
2022/12/08 08:26:35;;;;;;;22.87;14.87;;;4.10;99.90;;;;;;5033482;28;20203;-69
2022/12/08 08:29:01;;;;;;;25.67;16.50;;;4.00;99.90;;;;;;5030232;28;20191;-71
2022/12/08 08:31:26;;;;;;;26.17;16.57;;;4.00;99.90;;;;;;5035993;28;20484;-68
2022/12/08 08:33:52;;;;;;;25.63;15.60;;;4.00;99.90;;;;;;5035715;28;20200;-68
2022/12/08 08:36:18;;;;;;;23.73;15.00;;;4.10;99.90;;;;;;5036806;28;20783;-68
2022/12/08 08:38:44;;;;;;;24.33;14.70;;;4.20;99.90;;;;;;5036023;28;20529;-68
2022/12/08 08:41:10;;;;;;;30.37;16.60;;;4.30;99.90;;;;;;5035500;28;20191;-69
2022/12/08 08:43:36;;;;;;;24.70;15.80;;;4.40;99.90;;;;;;5019002;28;20247;-69
2022/12/08 08:46:02;;;;;;;28.20;14.30;;;4.40;99.90;;;;;;5034394;28;20485;-69
2022/12/08 08:48:29;;;;;;;25.17;14.97;;;4.40;99.90;;;;;;5038324;28;20965;-69
2022/12/08 08:50:56;;;;;;;26.10;15.63;;;4.40;99.90;;;;;;5035030;28;20430;-69
2022/12/08 08:53:22;;;;;;;27.67;15.13;;;4.40;99.90;;;;;;5035933;28;20510;-69
2022/12/08 08:55:49;;;;;;;30.77;18.33;;;4.40;99.90;;;;;;5034592;28;20466;-69
2022/12/08 08:58:14;;;;;;;26.87;16.90;;;4.30;99.90;;;;;;5033011;28;20445;-68
2022/12/08 09:00:40;;;;;;;36.13;16.30;;;4.20;99.90;;;;;;5038638;28;20446;-70
2022/12/08 09:03:06;;;;;;;28.40;16.90;;;4.20;99.90;;;;;;5032725;28;20233;-70
2022/12/08 09:05:31;;;;;;;27.67;16.70;;;4.20;99.90;;;;;;5036380;28;20282;-69
2022/12/08 09:07:57;;;;;;;23.17;15.13;;;4.30;99.90;;;;;;5033212;28;20199;-69
2022/12/08 09:10:22;;;;;;;29.20;17.00;;;4.30;99.90;;;;;;5035581;28;20192;-69
2022/12/08 09:12:48;;;;;;;28.10;17.00;;;4.30;99.90;;;;;;5033225;28;20188;-68
2022/12/08 09:15:14;;;;;;;33.83;17.10;;;4.40;99.90;;;;;;5037358;28;20249;-69
2022/12/08 09:17:40;;;;;;;27.17;16.63;;;4.50;99.90;;;;;;5036823;28;20211;-70
2022/12/08 09:20:07;;;;;;;31.27;17.17;;;4.50;99.90;;;;;;5035244;28;20211;-69
2022/12/08 09:22:33;;;;;;;28.83;18.10;;;4.50;99.90;;;;;;5033206;28;20445;-69
2022/12/08 09:24:58;;;;;;;25.97;16.63;;;4.50;99.90;;;;;;5033282;28;20469;-70
2022/12/08 09:27:24;;;;;;;29.40;17.07;;;4.60;99.90;;;;;;5037907;28;20645;-70
2022/12/08 09:29:49;;;;;;;27.83;16.60;;;4.70;99.90;;;;;;5035953;28;20220;-71
2022/12/08 09:32:15;;;;;;;26.90;17.30;;;4.70;99.90;;;;;;5032678;28;20838;-70
2022/12/08 09:34:40;;;;;;;27.20;17.37;;;4.90;99.90;;;;;;5035316;28;20345;-70
2022/12/08 09:37:06;;;;;;;25.37;17.03;;;4.80;99.90;;;;;;5033092;28;20881;-69
2022/12/08 09:39:32;;;;;;;27.77;16.37;;;4.80;99.90;;;;;;5032548;28;20214;-69
2022/12/08 09:42:03;;;;;;;28.87;18.10;;;4.80;99.90;;;;;;5020342;28;20195;-69
2022/12/08 09:45:07;;;;;;;36.17;18.27;;;4.70;99.90;;;;;;5035814;28;20203;-68
2022/12/08 09:47:45;;;;;;;31.30;15.87;;;4.80;99.90;;;;;;4954884;28;20683;-69
2022/12/08 09:50:29;;;;;;;27.07;16.20;;;4.70;99.90;;;;;;5030664;28;20882;-68
2022/12/08 09:53:02;;;;;;;25.23;16.20;;;4.80;99.90;;;;;;5021953;28;20445;-67
2022/12/08 09:55:36;;;;;;;26.30;17.40;;;4.90;99.90;;;;;;5032079;28;20473;-67
2022/12/08 09:58:03;;;;;;;28.10;17.97;;;4.80;99.90;;;;;;5029566;28;20704;-68
2022/12/08 10:00:29;;;;;;;28.33;17.40;;;4.80;99.90;;;;;;5033262;28;20427;-68
2022/12/08 10:02:56;;;;;;;33.03;18.17;;;4.90;99.90;;;;;;5028517;28;20798;-67
2022/12/08 10:05:24;;;;;;;26.67;16.87;;;4.90;99.90;;;;;;5036342;28;20341;-68
2022/12/08 10:08:14;;;;;;;27.60;17.40;;;5.10;99.90;;;;;;5027360;28;20466;-69
2022/12/08 10:10:56;;;;;;;22.63;16.30;;;5.20;99.90;;;;;;5035180;28;21189;-68
2022/12/08 10:13:32;;;;;;;27.30;17.33;;;5.30;99.90;;;;;;5033949;28;20522;-70
2022/12/08 10:16:06;;;;;;;29.80;17.43;;;5.20;99.90;;;;;;5035563;28;20474;-70
2022/12/08 10:18:33;;;;;;;23.67;16.20;;;5.20;99.90;;;;;;5036016;28;20456;-68
2022/12/08 10:21:15;;;;;;;33.00;18.00;;;5.30;99.90;;;;;;5033468;28;20433;-68
2022/12/08 10:23:44;;;;;;;25.67;15.57;;;5.30;99.90;;;;;;5035943;28;20580;-69
2022/12/08 10:26:16;;;;;;;25.20;15.33;;;5.30;99.90;;;;;;5033483;28;20952;-71
2022/12/08 10:28:42;;;;;;;26.47;16.37;;;5.30;99.90;;;;;;5035559;28;20438;-71
2022/12/08 10:31:16;;;;;;;24.83;16.30;;;5.10;99.90;;;;;;5035188;28;20440;-70
2022/12/08 10:33:43;;;;;;;25.20;16.60;;;5.20;99.90;;;;;;5034658;28;20299;-69
2022/12/08 10:36:10;;;;;;;27.80;16.47;;;5.20;99.90;;;;;;5032435;28;21673;-69
2022/12/08 10:38:37;;;;;;;27.80;16.43;;;5.20;99.90;;;;;;5037223;28;20897;-70
2022/12/08 10:41:10;;;;;;;27.03;16.30;;;5.30;99.90;;;;;;5034379;28;20678;-69
2022/12/08 10:43:59;;;;;;;25.57;15.73;;;5.40;99.90;;;;;;5033050;28;20453;-71
2022/12/08 10:46:26;;;;;;;26.90;16.87;;;5.50;99.90;;;;;;5034465;28;20426;-72
2022/12/08 10:49:04;;;;;;;32.73;18.50;;;5.50;99.90;;;;;;5032832;28;20447;-72
2022/12/08 10:51:41;;;;;;;24.87;15.90;;;5.50;99.90;;;;;;5032083;28;20914;-71
2022/12/08 10:54:32;;;;;;;27.33;17.23;;;5.60;99.90;;;;;;5032183;28;20449;-73
2022/12/08 10:56:58;;;;;;;31.60;17.50;;;5.60;99.90;;;;;;5028976;28;20457;-68
2022/12/08 10:59:27;;;;;;;27.30;17.40;;;5.60;99.90;;;;;;5031262;28;20458;-67
2022/12/08 11:01:54;;;;;;;27.87;15.07;;;5.70;99.90;;;;;;5029243;28;21124;-67
2022/12/08 11:04:35;;;;;;;28.17;15.10;;;5.70;99.90;;;;;;5035847;28;20460;-68
2022/12/08 11:07:03;;;;;;;25.30;15.40;;;5.70;99.90;;;;;;5030411;28;20935;-68
2022/12/08 11:09:53;;;;;;;26.43;16.23;;;5.70;99.90;;;;;;5033788;28;20431;-70
2022/12/08 11:12:21;;;;;;;26.70;16.53;;;5.60;99.90;;;;;;5034011;28;20442;-69
2022/12/08 11:14:57;;;;;;;25.90;15.80;;;5.70;99.90;;;;;;5035032;28;20481;-69
2022/12/08 11:17:27;;;;;;;24.17;15.23;;;5.80;99.90;;;;;;5037375;28;20437;-68
2022/12/08 11:20:07;;;;;;;25.50;14.60;;;5.90;99.90;;;;;;5032395;28;20437;-67
2022/12/08 11:22:37;;;;;;;30.20;15.20;;;5.80;99.90;;;;;;5036581;28;20845;-67
2022/12/08 11:25:23;;;;;;;31.90;15.70;;;5.70;99.90;;;;;;5033093;28;20438;-67
2022/12/08 11:27:52;;;;;;;28.23;15.83;;;5.80;99.90;;;;;;5035790;28;20526;-69
2022/12/08 11:30:20;;;;;;;28.30;16.27;;;5.70;99.90;;;;;;5019318;28;20453;-68
2022/12/08 11:32:56;;;;;;;26.53;16.30;;;5.70;99.90;;;;;;5033585;28;20448;-68
2022/12/08 11:35:29;;;;;;;25.17;16.10;;;5.80;99.90;;;;;;5032149;28;20581;-68
2022/12/08 11:38:01;;;;;;;29.70;17.17;;;5.80;99.90;;;;;;5033888;28;20458;-69
2022/12/08 11:40:38;;;;;;;25.77;16.00;;;5.80;99.90;;;;;;5034105;28;20454;-68
2022/12/08 11:43:34;;;;;;;27.60;15.60;;;5.80;99.90;;;;;;5030887;28;20505;-67
2022/12/08 11:46:03;;;;;;;24.53;15.73;;;5.90;99.90;;;;;;5033531;28;20939;-67
2022/12/08 11:48:35;;;;;;;25.13;15.93;;;5.90;99.90;;;;;;5027336;28;21254;-68
2022/12/08 11:51:43;;;;;;;26.93;17.03;;;6.10;99.90;;;;;;5032151;28;20453;-68
2022/12/08 11:54:24;;;;;;;25.67;17.00;;;6.00;99.90;;;;;;5035136;28;20520;-70
2022/12/08 11:56:56;;;;;;;45.90;23.90;;;6.20;99.90;;;;;;5035257;28;20446;-70
2022/12/08 11:59:45;;;;;;;32.40;19.20;;;6.20;99.90;;;;;;5035962;28;20426;-70
2022/12/08 12:02:27;;;;;;;21.50;14.37;;;6.40;99.90;;;;;;5031772;28;20926;-72
2022/12/08 12:05:17;;;;;;;25.03;16.70;;;6.30;99.90;;;;;;5036118;28;20454;-72
2022/12/08 12:08:14;;;;;;;26.40;16.30;;;6.30;99.90;;;;;;5034409;28;20438;-69
2022/12/08 12:10:54;;;;;;;21.60;13.67;;;6.30;99.90;;;;;;5037982;28;20432;-68
2022/12/08 12:14:04;;;;;;;20.57;14.20;;;6.40;99.90;;;;;;5034678;28;20441;-70
2022/12/08 12:16:59;;;;;;;19.87;13.40;;;6.50;99.90;;;;;;5012973;28;20478;-70
2022/12/08 12:19:27;;;;;;;24.50;13.33;;;6.50;99.90;;;;;;5036568;28;20587;-70
2022/12/08 12:21:55;;;;;;;18.60;12.57;;;6.60;99.90;;;;;;5019160;28;20947;-69
2022/12/08 12:24:21;;;;;;;17.40;11.90;;;6.70;99.90;;;;;;5033252;28;20455;-69
2022/12/08 12:26:56;;;;;;;15.93;10.80;;;6.80;99.90;;;;;;5035929;28;20442;-69
2022/12/08 12:29:25;;;;;;;14.73;9.20;;;6.80;99.90;;;;;;5037240;28;20186;-68
2022/12/08 12:32:01;;;;;;;15.10;9.30;;;6.80;99.90;;;;;;5035547;28;20433;-68
2022/12/08 12:34:31;;;;;;;12.60;8.60;;;6.90;99.90;;;;;;5036860;28;20454;-68
2022/12/08 12:37:09;;;;;;;13.50;9.17;;;6.80;99.90;;;;;;5022734;28;20430;-68
2022/12/08 12:39:56;;;;;;;13.13;8.70;;;6.70;99.90;;;;;;5030652;28;20880;-68
2022/12/08 12:42:43;;;;;;;10.40;8.30;;;6.60;99.90;;;;;;5020457;28;20521;-68
2022/12/08 12:45:17;;;;;;;13.47;8.00;;;6.60;99.90;;;;;;5035585;28;20535;-68
2022/12/08 12:48:02;;;;;;;12.83;8.80;;;6.70;99.90;;;;;;5019366;28;20445;-69
2022/12/08 12:50:34;;;;;;;14.00;9.17;;;6.60;99.90;;;;;;5037196;28;20948;-68
2022/12/08 12:52:59;;;;;;;15.53;9.60;;;6.60;99.90;;;;;;5014054;28;20500;-69
2022/12/08 12:55:27;;;;;;;13.77;9.63;;;6.70;99.90;;;;;;5036453;28;20564;-69
2022/12/08 12:57:57;;;;;;;12.10;8.43;;;6.60;99.90;;;;;;5037466;28;20274;-68